ENQC

Troll C Platform Heliport

Norway
METAR ENQC 160950Z AUTO 19024KT 5000NDV OVC006/// 10/09 Q1026 W///S5
Observed Flight Rules
Nov-16 @ 09:50 UTC (27 minutes ago)
Wind Clouds
190° at 24 knots
  • Overcast at 600' AGL
Temperatures Readings
Current 10°C / 50°F
Dewpoint 9°C / 48°F
Humidity 94%
Altimeter 30.3" Hg
Pressure 1026 hPa
Elevation 20
METAR ENQC 160950Z AUTO 19024KT 5000NDV OVC006/// 10/09 Q1026 W///S5
Observed Flight Rules
Nov-16 @ 09:50 UTC
(27 minutes ago)
Wind
190° at 24 knots
Clouds
  • Overcast at 600' AGL
Temperature Dewpoint
10°C / 50°F 9°C / 48°F
Humidity Altimeter Pressure
94% 30.3" Hg 1026 hPa